createdAt,value
2022-08-03T00:01:05.712Z,0.30
2022-08-03T00:03:54.180Z,0.40
2022-08-03T00:06:42.942Z,0.20
2022-08-03T00:09:35.452Z,0.20
2022-08-03T00:12:24.421Z,0.10
2022-08-03T00:15:16.637Z,0.40
2022-08-03T00:18:05.439Z,0.40
2022-08-03T00:20:53.866Z,0.45
2022-08-03T00:23:51.921Z,0.40
2022-08-03T00:26:41.219Z,0.20
2022-08-03T00:29:29.686Z,0.75
2022-08-03T00:32:18.139Z,0.40
2022-08-03T00:35:09.927Z,0.17
2022-08-03T00:38:01.015Z,0.30
2022-08-03T00:40:49.428Z,0.20
2022-08-03T00:43:38.129Z,0.20
2022-08-03T00:46:26.504Z,0.28
2022-08-03T00:49:14.991Z,0.20
2022-08-03T00:52:09.597Z,0.30
2022-08-03T00:54:58.232Z,0.20
2022-08-03T00:57:46.977Z,0.30
2022-08-03T01:00:41.375Z,0.28
2022-08-03T01:03:29.931Z,0.20
2022-08-03T01:06:33.317Z,0.20
2022-08-03T01:09:44.749Z,0.30
2022-08-03T01:12:36.841Z,0.43
2022-08-03T01:15:28.261Z,0.38
2022-08-03T01:18:30.771Z,0.50
2022-08-03T01:21:29.646Z,0.35
2022-08-03T01:24:42.544Z,0.35
2022-08-03T01:28:20.525Z,0.40
2022-08-03T01:31:11.942Z,0.30
2022-08-03T01:34:03.569Z,0.20
2022-08-03T01:36:59.546Z,0.40
2022-08-03T01:39:49.408Z,0.47
2022-08-03T01:42:40.540Z,0.30
2022-08-03T01:45:29.880Z,0.22
2022-08-03T01:48:23.068Z,0.30
2022-08-03T01:51:11.902Z,0.20
2022-08-03T01:54:01.716Z,0.30
2022-08-03T01:56:52.012Z,0.20
2022-08-03T01:59:42.481Z,0.28
2022-08-03T02:02:34.494Z,0.25
2022-08-03T02:05:24.953Z,0.30
2022-08-03T02:08:14.364Z,0.22
2022-08-03T02:11:03.556Z,0.57
2022-08-03T02:13:52.605Z,0.30
2022-08-03T02:16:41.180Z,0.40
2022-08-03T02:19:35.252Z,0.30
2022-08-03T02:22:25.300Z,0.35
2022-08-03T02:25:15.851Z,0.43
2022-08-03T02:28:12.705Z,0.35
2022-08-03T02:31:06.229Z,0.22
2022-08-03T02:34:00.021Z,0.40
2022-08-03T02:36:53.441Z,0.40
2022-08-03T02:39:43.048Z,0.38
2022-08-03T02:42:33.766Z,0.40
2022-08-03T02:45:24.748Z,0.50
2022-08-03T02:48:16.367Z,0.50
2022-08-03T02:51:04.944Z,0.30
2022-08-03T02:53:55.660Z,0.50
2022-08-03T02:56:45.886Z,0.50
2022-08-03T02:59:35.329Z,0.30
2022-08-03T03:02:25.289Z,0.52
2022-08-03T03:05:56.235Z,0.40
2022-08-03T03:08:25.981Z,0.77
2022-08-03T03:11:19.229Z,0.43
2022-08-03T03:14:09.670Z,0.25
2022-08-03T03:16:58.264Z,0.60
2022-08-03T03:19:46.935Z,0.40
2022-08-03T03:22:35.697Z,0.47
2022-08-03T03:25:24.766Z,0.45
2022-08-03T03:28:13.385Z,0.47
2022-08-03T03:31:01.928Z,0.32
2022-08-03T03:33:50.509Z,0.90
2022-08-03T03:36:38.936Z,0.75
2022-08-03T03:39:27.489Z,0.28
2022-08-03T03:42:16.581Z,0.50
2022-08-03T03:45:07.226Z,0.50
2022-08-03T03:47:55.885Z,0.70
2022-08-03T03:50:44.978Z,0.50
2022-08-03T03:53:33.673Z,0.50
2022-08-03T03:56:22.085Z,0.60
2022-08-03T03:59:10.469Z,0.40
2022-08-03T04:01:59.495Z,0.60
2022-08-03T04:05:06.629Z,0.82
2022-08-03T04:08:23.984Z,0.60
2022-08-03T04:11:12.375Z,0.55
2022-08-03T04:14:27.867Z,0.70
2022-08-03T04:17:17.221Z,0.60
2022-08-03T04:20:06.955Z,0.43
2022-08-03T04:22:55.988Z,1.08
2022-08-03T04:25:45.045Z,0.57
2022-08-03T04:28:33.863Z,0.50
2022-08-03T04:31:24.729Z,0.70
2022-08-03T04:34:13.367Z,0.93
2022-08-03T04:37:07.919Z,1.02
2022-08-03T04:39:58.717Z,0.85
2022-08-03T04:42:49.236Z,0.73
2022-08-03T04:45:38.139Z,1.00
2022-08-03T04:48:26.702Z,1.05
2022-08-03T04:51:15.255Z,0.70
2022-08-03T04:54:03.881Z,1.52
2022-08-03T04:56:52.616Z,1.10
2022-08-03T04:59:41.086Z,1.05
2022-08-03T05:02:30.016Z,2.22
2022-08-03T05:05:18.596Z,3.47
2022-08-03T05:08:11.174Z,10.05
2022-08-03T05:10:59.889Z,2.17
2022-08-03T05:13:48.712Z,2.80
2022-08-03T05:16:37.181Z,2.33
2022-08-03T05:19:25.711Z,3.25
2022-08-03T05:22:14.304Z,3.55
2022-08-03T05:25:03.484Z,2.90
2022-08-03T05:27:51.977Z,4.28
2022-08-03T05:30:40.502Z,2.80
2022-08-03T05:33:28.888Z,4.90
2022-08-03T05:36:17.371Z,3.35
2022-08-03T05:39:05.792Z,7.53
2022-08-03T05:41:54.378Z,8.35
2022-08-03T05:44:42.835Z,14.10
2022-08-03T05:47:31.372Z,8.40
2022-08-03T05:50:20.915Z,7.55
2022-08-03T05:53:09.488Z,3.92
2022-08-03T05:56:02.330Z,8.32
2022-08-03T05:59:16.296Z,6.35
2022-08-03T06:02:10.460Z,7.18
2022-08-03T06:04:58.849Z,7.55
2022-08-03T06:07:47.288Z,6.63
2022-08-03T06:10:38.378Z,10.18
2022-08-03T06:13:27.108Z,10.20
2022-08-03T06:16:15.490Z,16.92
2022-08-03T06:19:04.236Z,6.63
2022-08-03T06:21:52.656Z,8.07
2022-08-03T06:24:41.849Z,14.60
2022-08-03T06:27:42.073Z,7.78
2022-08-03T06:30:30.679Z,22.80
2022-08-03T06:33:19.178Z,6.10
2022-08-03T06:36:07.844Z,11.73
2022-08-03T06:38:56.340Z,10.18
2022-08-03T06:41:45.301Z,9.02
2022-08-03T06:44:33.685Z,16.10
2022-08-03T06:47:22.392Z,10.93
2022-08-03T06:50:16.185Z,6.28
2022-08-03T06:53:06.631Z,5.93
2022-08-03T06:55:55.451Z,8.07
2022-08-03T06:58:43.953Z,12.05
2022-08-03T07:01:32.426Z,11.95
2022-08-03T07:04:20.981Z,17.48
2022-08-03T07:07:09.452Z,6.35
2022-08-03T07:09:58.498Z,7.18
2022-08-03T07:12:56.233Z,6.88
2022-08-03T07:15:55.271Z,7.40
2022-08-03T07:18:44.477Z,8.07
2022-08-03T07:21:32.860Z,4.20
2022-08-03T07:24:21.371Z,3.78
2022-08-03T07:27:10.137Z,1.92
2022-08-03T07:29:59.075Z,5.75
2022-08-03T07:32:50.497Z,6.80
2022-08-03T07:35:39.335Z,7.82
2022-08-03T07:38:27.851Z,4.07
2022-08-03T07:41:16.288Z,9.63
2022-08-03T07:44:04.875Z,8.95
2022-08-03T07:46:53.357Z,6.95
2022-08-03T07:49:42.094Z,6.65
2022-08-03T07:52:49.546Z,6.55
2022-08-03T07:55:38.283Z,9.80
2022-08-03T07:58:26.792Z,6.10
2022-08-03T08:01:15.369Z,11.75
2022-08-03T08:04:03.889Z,6.32
2022-08-03T08:06:52.228Z,8.48
2022-08-03T08:09:40.665Z,5.28
2022-08-03T08:12:29.441Z,9.02
2022-08-03T08:15:17.666Z,8.38
2022-08-03T08:18:06.335Z,7.40
2022-08-03T08:20:55.097Z,6.25
2022-08-03T08:23:47.090Z,6.13
2022-08-03T08:26:45.319Z,6.07
2022-08-03T08:29:33.790Z,6.18
2022-08-03T08:32:23.421Z,6.43
2022-08-03T08:35:12.466Z,5.40
2022-08-03T08:38:01.301Z,7.93
2022-08-03T08:40:56.361Z,6.78
2022-08-03T08:43:44.491Z,5.13
2022-08-03T08:46:33.739Z,4.28
2022-08-03T08:49:27.857Z,11.88
2022-08-03T08:52:29.484Z,12.27
2022-08-03T08:55:24.937Z,8.88
2022-08-03T08:58:13.473Z,6.65
2022-08-03T09:01:09.681Z,12.82
2022-08-03T09:03:58.168Z,8.65
2022-08-03T09:07:04.521Z,11.30
2022-08-03T09:10:11.027Z,9.50
2022-08-03T09:13:00.724Z,9.43
2022-08-03T09:15:59.823Z,13.00
2022-08-03T09:18:53.198Z,8.50
2022-08-03T09:21:41.773Z,10.98
2022-08-03T09:24:41.263Z,12.15
2022-08-03T09:27:30.489Z,11.20
2022-08-03T09:30:33.325Z,5.18
2022-08-03T09:33:24.585Z,7.65
2022-08-03T09:36:49.474Z,7.95
2022-08-03T09:39:42.192Z,9.85
2022-08-03T09:42:30.845Z,9.30
2022-08-03T09:45:39.624Z,13.40
2022-08-03T09:48:30.386Z,7.28
2022-08-03T09:52:30.048Z,9.02
2022-08-03T09:54:34.317Z,15.73
2022-08-03T09:57:27.312Z,7.78
2022-08-03T10:00:17.687Z,8.38
2022-08-03T10:03:06.507Z,4.53
2022-08-03T10:05:59.541Z,8.23
2022-08-03T10:09:08.082Z,7.93
2022-08-03T10:11:56.647Z,10.13
2022-08-03T10:14:47.871Z,7.57
2022-08-03T10:17:40.255Z,3.97
2022-08-03T10:20:28.768Z,12.32
2022-08-03T10:23:19.259Z,8.75
2022-08-03T10:26:08.653Z,10.85
2022-08-03T10:29:01.074Z,8.95
2022-08-03T10:31:54.760Z,6.50
2022-08-03T10:34:50.934Z,11.52
2022-08-03T10:38:08.352Z,8.77
2022-08-03T10:40:59.093Z,4.28
2022-08-03T10:44:04.641Z,13.50
2022-08-03T10:46:53.476Z,6.63
2022-08-03T10:49:42.096Z,12.65
2022-08-03T10:52:33.723Z,12.63
2022-08-03T10:55:54.664Z,10.65
2022-08-03T10:58:53.206Z,11.73
2022-08-03T11:02:00.079Z,23.45
2022-08-03T11:05:29.435Z,12.73
2022-08-03T11:08:28.016Z,12.95
2022-08-03T11:11:19.089Z,8.57
2022-08-03T11:14:21.897Z,9.18
2022-08-03T11:17:14.079Z,6.82
2022-08-03T11:20:05.384Z,12.40
2022-08-03T11:22:55.015Z,10.88
2022-08-03T11:26:13.989Z,9.65
2022-08-03T11:29:29.298Z,7.95
2022-08-03T11:32:48.394Z,8.25
2022-08-03T11:36:01.514Z,8.43
2022-08-03T11:39:16.791Z,10.00
2022-08-03T11:42:27.571Z,6.45
2022-08-03T11:45:17.920Z,7.55
2022-08-03T11:48:17.092Z,7.93
2022-08-03T11:51:25.601Z,10.73
2022-08-03T11:54:14.225Z,21.13
2022-08-03T11:57:02.621Z,13.68
2022-08-03T11:59:51.076Z,15.57
2022-08-03T12:02:39.441Z,13.02
2022-08-03T12:05:52.848Z,21.95
2022-08-03T12:08:42.993Z,21.05
2022-08-03T12:11:31.482Z,13.60
2022-08-03T12:14:48.239Z,14.95
2022-08-03T12:17:40.843Z,12.13
2022-08-03T12:20:35.283Z,9.23
2022-08-03T12:23:23.918Z,8.75
2022-08-03T12:26:12.401Z,10.30
2022-08-03T12:29:00.758Z,7.85
2022-08-03T12:31:50.503Z,5.40
2022-08-03T12:34:49.837Z,14.43
2022-08-03T12:37:38.677Z,11.10
2022-08-03T12:40:28.344Z,4.05
2022-08-03T12:43:17.145Z,2.67
2022-08-03T12:46:16.629Z,3.45
2022-08-03T12:49:05.510Z,5.30
2022-08-03T12:51:53.953Z,5.15
2022-08-03T12:54:43.906Z,4.43
2022-08-03T12:57:42.749Z,4.93
2022-08-03T13:00:31.427Z,6.13
2022-08-03T13:03:39.149Z,5.80
2022-08-03T13:06:29.138Z,4.75
2022-08-03T13:09:17.718Z,4.30
2022-08-03T13:12:16.500Z,8.85
2022-08-03T13:15:05.565Z,5.40
2022-08-03T13:17:55.531Z,3.58
2022-08-03T13:20:44.003Z,5.15
2022-08-03T13:23:32.462Z,6.97
2022-08-03T13:26:20.909Z,4.25
2022-08-03T13:29:09.297Z,9.60
2022-08-03T13:31:57.680Z,8.40
2022-08-03T13:34:46.449Z,10.25
2022-08-03T13:37:35.213Z,12.27
2022-08-03T13:40:30.666Z,9.80
2022-08-03T13:43:22.866Z,9.95
2022-08-03T13:46:11.285Z,4.70
2022-08-03T13:48:59.727Z,13.63
2022-08-03T13:51:48.251Z,9.45
2022-08-03T13:54:36.676Z,16.15
2022-08-03T13:58:02.242Z,8.10
2022-08-03T14:00:33.485Z,17.35
2022-08-03T14:03:22.727Z,12.55
2022-08-03T14:06:11.474Z,10.32
2022-08-03T14:09:00.760Z,8.55
2022-08-03T14:12:04.025Z,8.68
2022-08-03T14:14:58.384Z,7.57
2022-08-03T14:17:50.305Z,8.82
2022-08-03T14:20:50.005Z,7.07
2022-08-03T14:23:40.014Z,14.73
2022-08-03T14:26:28.433Z,11.50
2022-08-03T14:29:16.793Z,18.40
2022-08-03T14:32:11.269Z,11.38
2022-08-03T14:35:01.197Z,9.63
2022-08-03T14:37:49.585Z,11.88
2022-08-03T14:40:38.114Z,7.38
2022-08-03T14:43:26.613Z,12.15
2022-08-03T14:46:23.219Z,11.90
2022-08-03T14:50:31.232Z,11.32
2022-08-03T14:52:20.034Z,17.40
2022-08-03T14:55:08.769Z,13.93
2022-08-03T14:57:57.153Z,9.52
2022-08-03T15:00:45.596Z,9.40
2022-08-03T15:03:34.143Z,11.20
2022-08-03T15:06:22.586Z,7.50
2022-08-03T15:09:23.545Z,8.95
2022-08-03T15:12:12.764Z,9.63
2022-08-03T15:15:01.314Z,5.20
2022-08-03T15:18:00.347Z,10.07
2022-08-03T15:20:50.635Z,9.23
2022-08-03T15:23:39.166Z,9.88
2022-08-03T15:26:30.917Z,5.85
2022-08-03T15:30:07.665Z,8.50
2022-08-03T15:32:30.910Z,10.70
2022-08-03T15:35:19.341Z,7.22
2022-08-03T15:38:09.674Z,9.73
2022-08-03T15:40:59.212Z,10.38
2022-08-03T15:43:47.890Z,9.32
2022-08-03T15:46:36.384Z,7.35
2022-08-03T15:49:24.732Z,11.13
2022-08-03T15:52:13.144Z,14.27
2022-08-03T15:55:01.632Z,13.07
2022-08-03T15:59:03.267Z,11.35
2022-08-03T16:00:59.079Z,7.78
2022-08-03T16:03:48.726Z,11.05
2022-08-03T16:06:37.236Z,11.40
2022-08-03T16:09:42.153Z,16.42
2022-08-03T16:12:31.938Z,12.20
2022-08-03T16:15:20.347Z,15.48
2022-08-03T16:18:08.752Z,8.80
2022-08-03T16:20:57.969Z,11.77
2022-08-03T16:23:47.339Z,12.48
2022-08-03T16:26:35.952Z,9.65
2022-08-03T16:29:24.445Z,9.88
2022-08-03T16:32:12.934Z,10.00
2022-08-03T16:35:01.706Z,7.25
2022-08-03T16:37:56.059Z,9.07
2022-08-03T16:40:47.039Z,12.38
2022-08-03T16:43:35.797Z,12.07
2022-08-03T16:46:24.378Z,11.85
2022-08-03T16:49:13.176Z,22.20
2022-08-03T16:52:21.616Z,74.70
2022-08-03T16:55:15.651Z,16.17
2022-08-03T16:58:06.249Z,10.32
2022-08-03T17:00:55.219Z,11.38
2022-08-03T17:03:57.329Z,13.32
2022-08-03T17:06:52.405Z,10.38
2022-08-03T17:09:40.757Z,7.00
2022-08-03T17:12:30.141Z,11.23
2022-08-03T17:15:20.088Z,10.25
2022-08-03T17:18:29.805Z,11.27
2022-08-03T17:21:26.892Z,11.02
2022-08-03T17:24:32.461Z,14.85
2022-08-03T17:28:49.564Z,13.63
2022-08-03T17:30:59.750Z,8.82
2022-08-03T17:33:54.838Z,10.65
2022-08-03T17:39:59.389Z,12.88
2022-08-03T17:42:50.720Z,4.65
2022-08-03T17:45:52.471Z,7.25
2022-08-03T17:48:43.185Z,10.10
2022-08-03T17:51:46.557Z,9.43
2022-08-03T17:55:57.277Z,13.18
2022-08-03T17:58:58.575Z,10.93
2022-08-03T18:02:55.129Z,17.88
2022-08-03T18:06:11.276Z,9.07
2022-08-03T18:09:00.030Z,6.20
2022-08-03T18:11:59.009Z,9.88
2022-08-03T18:15:08.360Z,2.10
2022-08-03T18:18:10.527Z,5.72
2022-08-03T18:21:04.563Z,7.13
2022-08-03T18:23:59.538Z,4.88
2022-08-03T18:26:49.955Z,6.70
2022-08-03T18:29:40.058Z,10.32
2022-08-03T18:32:28.397Z,7.18
2022-08-03T18:35:24.720Z,17.05
2022-08-03T18:38:16.783Z,15.50
2022-08-03T18:41:15.588Z,20.38
2022-08-03T18:44:46.540Z,20.23
2022-08-03T18:47:50.442Z,12.15
2022-08-03T18:50:53.780Z,22.20
2022-08-03T18:54:02.325Z,15.48
2022-08-03T18:56:56.961Z,11.48
2022-08-03T19:00:12.258Z,15.43
2022-08-03T19:03:07.165Z,15.02
2022-08-03T19:06:13.260Z,19.67
2022-08-03T19:09:13.243Z,19.75
2022-08-03T19:12:13.926Z,16.88
2022-08-03T19:15:16.418Z,10.00
2022-08-03T19:18:16.625Z,7.30
2022-08-03T19:21:12.737Z,18.85
2022-08-03T19:24:09.906Z,8.20
2022-08-03T19:26:59.878Z,12.90
2022-08-03T19:29:58.779Z,6.60
2022-08-03T19:32:50.707Z,14.30
2022-08-03T19:35:51.538Z,13.48
2022-08-03T19:38:44.710Z,43.63
2022-08-03T19:41:42.756Z,15.27
2022-08-03T19:44:34.282Z,30.70
2022-08-03T19:48:09.725Z,16.67
2022-08-03T19:50:59.783Z,15.90
2022-08-03T19:53:51.813Z,21.55
2022-08-03T19:56:47.920Z,17.10
2022-08-03T19:59:56.684Z,14.13
2022-08-03T20:02:45.632Z,20.27
2022-08-03T20:05:44.841Z,20.08
2022-08-03T20:08:44.087Z,25.75
2022-08-03T20:11:33.965Z,16.27
2022-08-03T20:14:33.792Z,24.45
2022-08-03T20:17:22.093Z,11.80
2022-08-03T20:20:36.571Z,8.30
2022-08-03T20:23:27.557Z,10.82
2022-08-03T20:26:30.385Z,12.63
2022-08-03T20:30:06.115Z,13.48
2022-08-03T20:32:50.529Z,15.82
2022-08-03T20:35:41.869Z,3.00
2022-08-03T20:38:34.588Z,17.45
2022-08-03T20:41:32.513Z,14.82
2022-08-03T20:44:25.943Z,20.38
2022-08-03T20:47:15.057Z,13.27
2022-08-03T20:50:13.007Z,9.57
2022-08-03T20:53:05.942Z,17.58
2022-08-03T20:56:02.190Z,8.23
2022-08-03T20:58:51.787Z,10.93
2022-08-03T21:01:39.957Z,10.77
2022-08-03T21:04:32.890Z,18.83
2022-08-03T21:07:22.858Z,14.02
2022-08-03T21:10:15.344Z,13.73
2022-08-03T21:13:17.677Z,15.15
2022-08-03T21:16:13.931Z,6.60
2022-08-03T21:19:04.378Z,7.90
2022-08-03T21:21:53.077Z,11.20
2022-08-03T21:24:41.568Z,13.30
2022-08-03T21:27:31.715Z,9.52
2022-08-03T21:30:22.749Z,8.35
2022-08-03T21:33:11.276Z,12.05
2022-08-03T21:36:01.894Z,8.52
2022-08-03T21:38:56.522Z,8.70
2022-08-03T21:41:45.621Z,13.70
2022-08-03T21:44:34.009Z,12.35
2022-08-03T21:47:24.443Z,8.27
2022-08-03T21:50:13.960Z,9.68
2022-08-03T21:53:03.515Z,10.15
2022-08-03T21:55:58.425Z,8.23
2022-08-03T21:59:02.613Z,10.40
2022-08-03T22:01:55.161Z,10.45
2022-08-03T22:04:56.031Z,7.85
2022-08-03T22:07:46.052Z,10.68
2022-08-03T22:10:34.579Z,4.70
2022-08-03T22:13:44.271Z,5.47
2022-08-03T22:16:31.802Z,10.38
2022-08-03T22:19:20.326Z,12.43
2022-08-03T22:22:13.737Z,12.85
2022-08-03T22:25:12.455Z,9.95
2022-08-03T22:28:07.321Z,9.75
2022-08-03T22:30:56.077Z,11.38
2022-08-03T22:33:49.057Z,11.65
2022-08-03T22:36:37.565Z,10.95
2022-08-03T22:39:29.145Z,11.38
2022-08-03T22:42:19.304Z,12.15
2022-08-03T22:45:08.319Z,9.40
2022-08-03T22:47:57.075Z,8.65
2022-08-03T22:50:46.555Z,9.27
2022-08-03T22:53:35.411Z,8.68
2022-08-03T22:56:24.190Z,8.65
2022-08-03T22:59:38.823Z,9.45
2022-08-03T23:02:22.584Z,12.32
2022-08-03T23:06:01.734Z,12.55
2022-08-03T23:08:34.762Z,4.00
2022-08-03T23:11:24.616Z,15.73
2022-08-03T23:14:15.867Z,13.60
2022-08-03T23:17:05.193Z,11.00
2022-08-03T23:19:55.629Z,11.77
2022-08-03T23:22:44.518Z,7.65
2022-08-03T23:25:41.013Z,9.63
2022-08-03T23:28:32.190Z,8.18
2022-08-03T23:31:21.784Z,15.45
2022-08-03T23:34:32.849Z,14.95
2022-08-03T23:37:21.582Z,29.30
2022-08-03T23:40:13.152Z,40.80
2022-08-03T23:43:03.002Z,14.52
2022-08-03T23:45:52.765Z,22.13
2022-08-03T23:48:41.273Z,18.75
2022-08-03T23:51:53.027Z,12.10
2022-08-03T23:55:20.656Z,25.73
2022-08-03T23:58:46.553Z,11.50
